sensor_id;sensor_type;location;lat;lon;timestamp;temperature;humidity
23301;DHT22;11819;51.394;12.340;2022-09-02T00:02:19;16.50;67.70
23301;DHT22;11819;51.394;12.340;2022-09-02T00:04:45;16.50;67.80
23301;DHT22;11819;51.394;12.340;2022-09-02T00:07:10;16.50;67.90
23301;DHT22;11819;51.394;12.340;2022-09-02T00:09:36;16.40;67.90
23301;DHT22;11819;51.394;12.340;2022-09-02T00:12:03;16.40;68.00
23301;DHT22;11819;51.394;12.340;2022-09-02T00:14:34;16.40;68.10
23301;DHT22;11819;51.394;12.340;2022-09-02T00:16:59;16.40;68.30
23301;DHT22;11819;51.394;12.340;2022-09-02T00:19:27;16.30;68.30
23301;DHT22;11819;51.394;12.340;2022-09-02T00:21:55;16.30;68.40
23301;DHT22;11819;51.394;12.340;2022-09-02T00:24:22;16.30;68.50
23301;DHT22;11819;51.394;12.340;2022-09-02T00:26:48;16.20;68.50
23301;DHT22;11819;51.394;12.340;2022-09-02T00:29:15;16.20;68.60
23301;DHT22;11819;51.394;12.340;2022-09-02T00:31:42;16.20;68.70
23301;DHT22;11819;51.394;12.340;2022-09-02T00:34:09;16.10;68.80
23301;DHT22;11819;51.394;12.340;2022-09-02T00:36:35;16.10;68.90
23301;DHT22;11819;51.394;12.340;2022-09-02T00:39:01;16.00;68.90
23301;DHT22;11819;51.394;12.340;2022-09-02T00:41:28;16.00;69.00
23301;DHT22;11819;51.394;12.340;2022-09-02T00:44:00;16.00;69.10
23301;DHT22;11819;51.394;12.340;2022-09-02T00:46:28;16.00;69.20
23301;DHT22;11819;51.394;12.340;2022-09-02T00:49:15;15.90;69.30
23301;DHT22;11819;51.394;12.340;2022-09-02T00:51:46;15.90;69.40
23301;DHT22;11819;51.394;12.340;2022-09-02T00:54:14;15.90;69.50
23301;DHT22;11819;51.394;12.340;2022-09-02T00:56:43;15.90;69.70
23301;DHT22;11819;51.394;12.340;2022-09-02T00:59:14;15.90;69.70
23301;DHT22;11819;51.394;12.340;2022-09-02T01:01:41;15.90;69.70
23301;DHT22;11819;51.394;12.340;2022-09-02T01:04:07;15.80;69.80
23301;DHT22;11819;51.394;12.340;2022-09-02T01:06:32;15.80;69.80
23301;DHT22;11819;51.394;12.340;2022-09-02T01:09:12;15.80;69.90
23301;DHT22;11819;51.394;12.340;2022-09-02T01:11:46;15.80;70.00
23301;DHT22;11819;51.394;12.340;2022-09-02T01:14:14;15.80;70.10
23301;DHT22;11819;51.394;12.340;2022-09-02T01:16:43;15.80;70.10
23301;DHT22;11819;51.394;12.340;2022-09-02T01:19:22;15.70;70.10
23301;DHT22;11819;51.394;12.340;2022-09-02T01:21:53;15.70;70.20
23301;DHT22;11819;51.394;12.340;2022-09-02T01:24:20;15.60;70.30
23301;DHT22;11819;51.394;12.340;2022-09-02T01:26:47;15.60;70.30
23301;DHT22;11819;51.394;12.340;2022-09-02T01:29:12;15.60;70.40
23301;DHT22;11819;51.394;12.340;2022-09-02T01:31:38;15.50;70.50
23301;DHT22;11819;51.394;12.340;2022-09-02T01:34:04;15.50;70.70
23301;DHT22;11819;51.394;12.340;2022-09-02T01:36:32;15.50;70.80
23301;DHT22;11819;51.394;12.340;2022-09-02T01:39:01;15.40;70.80
23301;DHT22;11819;51.394;12.340;2022-09-02T01:41:28;15.40;70.90
23301;DHT22;11819;51.394;12.340;2022-09-02T01:43:54;15.40;71.00
23301;DHT22;11819;51.394;12.340;2022-09-02T01:46:21;15.40;71.00
23301;DHT22;11819;51.394;12.340;2022-09-02T01:48:48;15.40;71.10
23301;DHT22;11819;51.394;12.340;2022-09-02T01:51:19;15.40;71.20
23301;DHT22;11819;51.394;12.340;2022-09-02T01:53:45;15.30;71.20
23301;DHT22;11819;51.394;12.340;2022-09-02T01:56:11;15.30;71.30
23301;DHT22;11819;51.394;12.340;2022-09-02T01:58:37;15.30;71.30
23301;DHT22;11819;51.394;12.340;2022-09-02T02:01:03;15.30;71.40
23301;DHT22;11819;51.394;12.340;2022-09-02T02:03:29;15.30;72.30
23301;DHT22;11819;51.394;12.340;2022-09-02T02:05:57;15.20;71.50
23301;DHT22;11819;51.394;12.340;2022-09-02T02:08:22;15.20;72.40
23301;DHT22;11819;51.394;12.340;2022-09-02T02:10:49;15.20;71.60
23301;DHT22;11819;51.394;12.340;2022-09-02T02:13:15;15.20;71.60
23301;DHT22;11819;51.394;12.340;2022-09-02T02:15:44;15.20;71.60
23301;DHT22;11819;51.394;12.340;2022-09-02T02:18:10;15.20;71.70
23301;DHT22;11819;51.394;12.340;2022-09-02T02:20:36;15.10;71.70
23301;DHT22;11819;51.394;12.340;2022-09-02T02:23:03;15.10;71.70
23301;DHT22;11819;51.394;12.340;2022-09-02T02:25:30;15.10;71.80
23301;DHT22;11819;51.394;12.340;2022-09-02T02:27:56;15.00;71.80
23301;DHT22;11819;51.394;12.340;2022-09-02T02:30:22;15.00;72.00
23301;DHT22;11819;51.394;12.340;2022-09-02T02:32:49;15.00;72.00
23301;DHT22;11819;51.394;12.340;2022-09-02T02:35:18;15.00;72.10
23301;DHT22;11819;51.394;12.340;2022-09-02T02:37:44;15.00;72.20
23301;DHT22;11819;51.394;12.340;2022-09-02T02:40:14;15.00;72.20
23301;DHT22;11819;51.394;12.340;2022-09-02T02:42:40;14.90;72.30
23301;DHT22;11819;51.394;12.340;2022-09-02T02:45:06;14.90;72.30
23301;DHT22;11819;51.394;12.340;2022-09-02T02:47:41;14.90;72.40
23301;DHT22;11819;51.394;12.340;2022-09-02T02:50:12;14.90;72.40
23301;DHT22;11819;51.394;12.340;2022-09-02T02:52:39;14.90;72.40
23301;DHT22;11819;51.394;12.340;2022-09-02T02:55:07;14.90;72.40
23301;DHT22;11819;51.394;12.340;2022-09-02T02:57:34;14.90;72.60
23301;DHT22;11819;51.394;12.340;2022-09-02T03:00:27;14.80;72.60
23301;DHT22;11819;51.394;12.340;2022-09-02T03:03:03;14.80;72.70
23301;DHT22;11819;51.394;12.340;2022-09-02T03:05:29;14.80;72.80
23301;DHT22;11819;51.394;12.340;2022-09-02T03:07:56;14.80;72.80
23301;DHT22;11819;51.394;12.340;2022-09-02T03:10:22;14.80;72.90
23301;DHT22;11819;51.394;12.340;2022-09-02T03:12:48;14.70;72.90
23301;DHT22;11819;51.394;12.340;2022-09-02T03:15:19;14.70;72.90
23301;DHT22;11819;51.394;12.340;2022-09-02T03:17:49;14.70;73.10
23301;DHT22;11819;51.394;12.340;2022-09-02T03:20:16;14.70;73.10
23301;DHT22;11819;51.394;12.340;2022-09-02T03:22:47;14.70;73.20
23301;DHT22;11819;51.394;12.340;2022-09-02T03:25:15;14.70;73.20
23301;DHT22;11819;51.394;12.340;2022-09-02T03:27:42;14.70;73.30
23301;DHT22;11819;51.394;12.340;2022-09-02T03:30:19;14.60;73.20
23301;DHT22;11819;51.394;12.340;2022-09-02T03:32:44;14.60;73.20
23301;DHT22;11819;51.394;12.340;2022-09-02T03:35:13;14.60;73.20
23301;DHT22;11819;51.394;12.340;2022-09-02T03:37:40;14.60;73.20
23301;DHT22;11819;51.394;12.340;2022-09-02T03:40:08;14.50;73.20
23301;DHT22;11819;51.394;12.340;2022-09-02T03:42:35;14.50;74.20
23301;DHT22;11819;51.394;12.340;2022-09-02T03:45:02;14.50;73.50
23301;DHT22;11819;51.394;12.340;2022-09-02T03:47:28;14.50;73.60
23301;DHT22;11819;51.394;12.340;2022-09-02T03:49:55;14.50;73.60
23301;DHT22;11819;51.394;12.340;2022-09-02T03:52:22;14.60;73.60
23301;DHT22;11819;51.394;12.340;2022-09-02T03:54:48;14.50;73.60
23301;DHT22;11819;51.394;12.340;2022-09-02T03:57:15;14.50;73.60
23301;DHT22;11819;51.394;12.340;2022-09-02T03:59:40;14.50;73.60
23301;DHT22;11819;51.394;12.340;2022-09-02T04:02:06;14.50;73.70
23301;DHT22;11819;51.394;12.340;2022-09-02T04:04:32;14.40;73.70
23301;DHT22;11819;51.394;12.340;2022-09-02T04:06:58;14.40;73.80
23301;DHT22;11819;51.394;12.340;2022-09-02T04:09:26;14.40;73.90
23301;DHT22;11819;51.394;12.340;2022-09-02T04:11:52;14.40;74.00
23301;DHT22;11819;51.394;12.340;2022-09-02T04:14:18;14.40;74.00
23301;DHT22;11819;51.394;12.340;2022-09-02T04:16:44;14.40;74.10
23301;DHT22;11819;51.394;12.340;2022-09-02T04:19:09;14.40;74.20
23301;DHT22;11819;51.394;12.340;2022-09-02T04:21:38;14.40;74.20
23301;DHT22;11819;51.394;12.340;2022-09-02T04:24:07;14.40;74.30
23301;DHT22;11819;51.394;12.340;2022-09-02T04:26:34;14.30;74.40
23301;DHT22;11819;51.394;12.340;2022-09-02T04:29:02;14.40;74.50
23301;DHT22;11819;51.394;12.340;2022-09-02T04:31:28;14.40;74.60
23301;DHT22;11819;51.394;12.340;2022-09-02T04:33:57;14.40;74.70
23301;DHT22;11819;51.394;12.340;2022-09-02T04:36:25;14.40;74.70
23301;DHT22;11819;51.394;12.340;2022-09-02T04:38:54;14.40;74.70
23301;DHT22;11819;51.394;12.340;2022-09-02T04:41:25;14.50;74.80
23301;DHT22;11819;51.394;12.340;2022-09-02T04:43:56;14.50;74.80
23301;DHT22;11819;51.394;12.340;2022-09-02T04:46:24;14.50;75.40
23301;DHT22;11819;51.394;12.340;2022-09-02T04:48:50;14.50;75.00
23301;DHT22;11819;51.394;12.340;2022-09-02T04:51:18;14.50;75.00
23301;DHT22;11819;51.394;12.340;2022-09-02T04:53:48;14.50;75.00
23301;DHT22;11819;51.394;12.340;2022-09-02T04:56:18;14.50;75.10
23301;DHT22;11819;51.394;12.340;2022-09-02T04:58:46;14.50;75.20
23301;DHT22;11819;51.394;12.340;2022-09-02T05:01:15;14.50;75.30
23301;DHT22;11819;51.394;12.340;2022-09-02T05:03:44;14.60;75.30
23301;DHT22;11819;51.394;12.340;2022-09-02T05:06:14;14.60;75.30
23301;DHT22;11819;51.394;12.340;2022-09-02T05:08:40;14.70;75.40
23301;DHT22;11819;51.394;12.340;2022-09-02T05:11:09;14.70;75.40
23301;DHT22;11819;51.394;12.340;2022-09-02T05:13:36;14.80;75.40
23301;DHT22;11819;51.394;12.340;2022-09-02T05:16:02;14.80;75.40
23301;DHT22;11819;51.394;12.340;2022-09-02T05:18:28;14.80;75.40
23301;DHT22;11819;51.394;12.340;2022-09-02T05:20:54;14.80;75.40
23301;DHT22;11819;51.394;12.340;2022-09-02T05:23:20;14.90;75.50
23301;DHT22;11819;51.394;12.340;2022-09-02T05:25:45;14.90;75.50
23301;DHT22;11819;51.394;12.340;2022-09-02T05:28:13;14.90;75.50
23301;DHT22;11819;51.394;12.340;2022-09-02T05:30:41;15.00;75.60
23301;DHT22;11819;51.394;12.340;2022-09-02T05:33:09;14.90;75.50
23301;DHT22;11819;51.394;12.340;2022-09-02T05:35:40;15.00;75.60
23301;DHT22;11819;51.394;12.340;2022-09-02T05:38:08;15.00;75.80
23301;DHT22;11819;51.394;12.340;2022-09-02T05:40:36;15.00;75.80
23301;DHT22;11819;51.394;12.340;2022-09-02T05:43:03;15.10;75.90
23301;DHT22;11819;51.394;12.340;2022-09-02T05:45:28;15.10;75.90
23301;DHT22;11819;51.394;12.340;2022-09-02T05:47:54;15.10;75.90
23301;DHT22;11819;51.394;12.340;2022-09-02T05:50:23;15.20;76.00
23301;DHT22;11819;51.394;12.340;2022-09-02T05:52:50;15.20;75.90
23301;DHT22;11819;51.394;12.340;2022-09-02T05:55:17;15.20;75.90
23301;DHT22;11819;51.394;12.340;2022-09-02T05:57:42;15.30;76.00
23301;DHT22;11819;51.394;12.340;2022-09-02T06:00:11;15.30;76.00
23301;DHT22;11819;51.394;12.340;2022-09-02T06:02:39;15.40;76.10
23301;DHT22;11819;51.394;12.340;2022-09-02T06:05:08;15.40;76.00
23301;DHT22;11819;51.394;12.340;2022-09-02T06:07:36;15.50;76.00
23301;DHT22;11819;51.394;12.340;2022-09-02T06:10:04;15.50;76.80
23301;DHT22;11819;51.394;12.340;2022-09-02T06:12:31;15.60;76.00
23301;DHT22;11819;51.394;12.340;2022-09-02T06:14:57;15.70;76.00
23301;DHT22;11819;51.394;12.340;2022-09-02T06:17:24;15.70;75.90
23301;DHT22;11819;51.394;12.340;2022-09-02T06:19:51;15.80;75.70
23301;DHT22;11819;51.394;12.340;2022-09-02T06:22:17;15.80;75.50
23301;DHT22;11819;51.394;12.340;2022-09-02T06:24:44;15.90;75.40
23301;DHT22;11819;51.394;12.340;2022-09-02T06:27:16;16.00;75.40
23301;DHT22;11819;51.394;12.340;2022-09-02T06:29:45;16.00;75.20
23301;DHT22;11819;51.394;12.340;2022-09-02T06:32:13;16.10;75.00
23301;DHT22;11819;51.394;12.340;2022-09-02T06:34:39;16.20;75.00
23301;DHT22;11819;51.394;12.340;2022-09-02T06:37:04;16.20;74.80
23301;DHT22;11819;51.394;12.340;2022-09-02T06:39:34;16.30;74.60
23301;DHT22;11819;51.394;12.340;2022-09-02T06:42:03;16.30;74.50
23301;DHT22;11819;51.394;12.340;2022-09-02T06:44:29;16.40;74.40
23301;DHT22;11819;51.394;12.340;2022-09-02T06:46:57;16.50;74.30
23301;DHT22;11819;51.394;12.340;2022-09-02T06:49:25;16.50;74.20
23301;DHT22;11819;51.394;12.340;2022-09-02T06:51:53;16.60;74.00
23301;DHT22;11819;51.394;12.340;2022-09-02T06:54:26;16.60;73.90
23301;DHT22;11819;51.394;12.340;2022-09-02T06:57:02;16.70;73.80
23301;DHT22;11819;51.394;12.340;2022-09-02T06:59:28;16.70;73.40
23301;DHT22;11819;51.394;12.340;2022-09-02T07:01:56;16.80;73.10
23301;DHT22;11819;51.394;12.340;2022-09-02T07:04:22;16.90;72.70
23301;DHT22;11819;51.394;12.340;2022-09-02T07:07:08;16.90;72.40
23301;DHT22;11819;51.394;12.340;2022-09-02T07:09:41;17.00;72.00
23301;DHT22;11819;51.394;12.340;2022-09-02T07:12:11;17.00;71.70
23301;DHT22;11819;51.394;12.340;2022-09-02T07:14:45;17.00;71.30
23301;DHT22;11819;51.394;12.340;2022-09-02T07:17:14;17.10;71.00
23301;DHT22;11819;51.394;12.340;2022-09-02T07:19:48;17.10;70.90
23301;DHT22;11819;51.394;12.340;2022-09-02T07:22:14;17.20;70.60
23301;DHT22;11819;51.394;12.340;2022-09-02T07:24:42;17.20;70.30
23301;DHT22;11819;51.394;12.340;2022-09-02T07:27:08;17.30;70.10
23301;DHT22;11819;51.394;12.340;2022-09-02T07:29:36;17.30;69.70
23301;DHT22;11819;51.394;12.340;2022-09-02T07:32:03;17.30;69.50
23301;DHT22;11819;51.394;12.340;2022-09-02T07:34:29;17.40;69.30
23301;DHT22;11819;51.394;12.340;2022-09-02T07:36:56;17.40;69.10
23301;DHT22;11819;51.394;12.340;2022-09-02T07:39:22;17.40;68.70
23301;DHT22;11819;51.394;12.340;2022-09-02T07:41:50;17.50;68.50
23301;DHT22;11819;51.394;12.340;2022-09-02T07:44:18;17.50;68.30
23301;DHT22;11819;51.394;12.340;2022-09-02T07:46:45;17.50;68.10
23301;DHT22;11819;51.394;12.340;2022-09-02T07:49:13;17.60;68.00
23301;DHT22;11819;51.394;12.340;2022-09-02T07:51:43;17.60;67.90
23301;DHT22;11819;51.394;12.340;2022-09-02T07:54:10;17.60;67.50
23301;DHT22;11819;51.394;12.340;2022-09-02T07:56:36;17.70;67.30
23301;DHT22;11819;51.394;12.340;2022-09-02T07:59:02;17.70;67.00
23301;DHT22;11819;51.394;12.340;2022-09-02T08:01:29;17.80;66.80
23301;DHT22;11819;51.394;12.340;2022-09-02T08:03:55;17.80;66.60
23301;DHT22;11819;51.394;12.340;2022-09-02T08:06:27;17.90;66.30
23301;DHT22;11819;51.394;12.340;2022-09-02T08:08:54;17.90;65.90
23301;DHT22;11819;51.394;12.340;2022-09-02T08:11:20;17.90;65.60
23301;DHT22;11819;51.394;12.340;2022-09-02T08:13:46;18.00;65.40
23301;DHT22;11819;51.394;12.340;2022-09-02T08:16:12;18.00;65.00
23301;DHT22;11819;51.394;12.340;2022-09-02T08:18:38;18.10;64.60
23301;DHT22;11819;51.394;12.340;2022-09-02T08:21:03;18.10;64.10
23301;DHT22;11819;51.394;12.340;2022-09-02T08:23:29;18.20;63.80
23301;DHT22;11819;51.394;12.340;2022-09-02T08:25:58;18.20;63.50
23301;DHT22;11819;51.394;12.340;2022-09-02T08:28:24;18.20;63.40
23301;DHT22;11819;51.394;12.340;2022-09-02T08:30:49;18.30;63.10
23301;DHT22;11819;51.394;12.340;2022-09-02T08:33:15;18.30;63.10
23301;DHT22;11819;51.394;12.340;2022-09-02T08:35:41;18.30;63.00
23301;DHT22;11819;51.394;12.340;2022-09-02T08:38:06;18.40;63.00
23301;DHT22;11819;51.394;12.340;2022-09-02T08:40:36;18.40;62.70
23301;DHT22;11819;51.394;12.340;2022-09-02T08:43:07;18.50;62.20
23301;DHT22;11819;51.394;12.340;2022-09-02T08:45:36;18.50;62.00
23301;DHT22;11819;51.394;12.340;2022-09-02T08:48:24;18.60;62.00
23301;DHT22;11819;51.394;12.340;2022-09-02T08:50:58;18.60;61.90
23301;DHT22;11819;51.394;12.340;2022-09-02T08:54:04;18.70;61.80
23301;DHT22;11819;51.394;12.340;2022-09-02T08:56:31;18.70;61.60
23301;DHT22;11819;51.394;12.340;2022-09-02T08:58:57;18.70;61.50
23301;DHT22;11819;51.394;12.340;2022-09-02T09:09:16;18.90;60.30
23301;DHT22;11819;51.394;12.340;2022-09-02T09:12:03;18.90;59.80
23301;DHT22;11819;51.394;12.340;2022-09-02T09:14:37;19.00;59.60
23301;DHT22;11819;51.394;12.340;2022-09-02T09:19:50;19.10;59.30
23301;DHT22;11819;51.394;12.340;2022-09-02T09:22:23;19.10;59.10
23301;DHT22;11819;51.394;12.340;2022-09-02T09:24:50;19.10;59.00
23301;DHT22;11819;51.394;12.340;2022-09-02T09:27:18;19.20;58.80
23301;DHT22;11819;51.394;12.340;2022-09-02T09:29:45;19.30;58.70
23301;DHT22;11819;51.394;12.340;2022-09-02T09:32:21;19.30;58.00
23301;DHT22;11819;51.394;12.340;2022-09-02T09:37:41;19.40;57.70
23301;DHT22;11819;51.394;12.340;2022-09-02T09:40:23;19.40;57.70
23301;DHT22;11819;51.394;12.340;2022-09-02T09:43:11;19.40;57.60
23301;DHT22;11819;51.394;12.340;2022-09-02T09:45:41;19.40;57.50
23301;DHT22;11819;51.394;12.340;2022-09-02T09:53:28;19.60;57.10
23301;DHT22;11819;51.394;12.340;2022-09-02T09:56:05;19.60;57.10
23301;DHT22;11819;51.394;12.340;2022-09-02T09:58:33;19.70;57.00
23301;DHT22;11819;51.394;12.340;2022-09-02T10:08:58;19.90;56.30
23301;DHT22;11819;51.394;12.340;2022-09-02T10:11:26;19.90;56.20
23301;DHT22;11819;51.394;12.340;2022-09-02T10:14:00;20.00;56.10
23301;DHT22;11819;51.394;12.340;2022-09-02T10:16:52;20.10;56.10
23301;DHT22;11819;51.394;12.340;2022-09-02T10:19:36;20.10;55.90
23301;DHT22;11819;51.394;12.340;2022-09-02T10:27:44;20.30;55.70
23301;DHT22;11819;51.394;12.340;2022-09-02T10:30:20;20.30;55.50
23301;DHT22;11819;51.394;12.340;2022-09-02T10:32:53;20.40;55.30
23301;DHT22;11819;51.394;12.340;2022-09-02T10:35:44;20.40;55.00
23301;DHT22;11819;51.394;12.340;2022-09-02T10:38:41;20.40;54.80
23301;DHT22;11819;51.394;12.340;2022-09-02T10:41:12;20.40;54.60
23301;DHT22;11819;51.394;12.340;2022-09-02T10:44:13;20.50;54.50
23301;DHT22;11819;51.394;12.340;2022-09-02T10:46:52;20.50;54.40
23301;DHT22;11819;51.394;12.340;2022-09-02T10:49:41;20.60;54.30
23301;DHT22;11819;51.394;12.340;2022-09-02T10:57:30;20.80;54.00
23301;DHT22;11819;51.394;12.340;2022-09-02T11:02:36;20.90;53.40
23301;DHT22;11819;51.394;12.340;2022-09-02T11:08:06;21.00;52.10
23301;DHT22;11819;51.394;12.340;2022-09-02T11:10:38;21.10;51.90
23301;DHT22;11819;51.394;12.340;2022-09-02T11:13:10;21.10;51.60
23301;DHT22;11819;51.394;12.340;2022-09-02T11:18:17;21.10;51.00
23301;DHT22;11819;51.394;12.340;2022-09-02T11:21:08;21.10;50.90
23301;DHT22;11819;51.394;12.340;2022-09-02T11:26:36;21.10;49.90
23301;DHT22;11819;51.394;12.340;2022-09-02T11:32:06;21.10;49.40
23301;DHT22;11819;51.394;12.340;2022-09-02T11:34:44;21.10;49.20
23301;DHT22;11819;51.394;12.340;2022-09-02T11:37:30;21.10;49.30
23301;DHT22;11819;51.394;12.340;2022-09-02T11:40:02;21.20;48.80
23301;DHT22;11819;51.394;12.340;2022-09-02T11:42:57;21.20;48.70
23301;DHT22;11819;51.394;12.340;2022-09-02T11:48:54;21.30;48.90
23301;DHT22;11819;51.394;12.340;2022-09-02T11:51:43;21.30;48.80
23301;DHT22;11819;51.394;12.340;2022-09-02T11:54:15;21.30;48.70
23301;DHT22;11819;51.394;12.340;2022-09-02T11:56:47;21.40;48.60
23301;DHT22;11819;51.394;12.340;2022-09-02T12:02:39;21.60;48.30
23301;DHT22;11819;51.394;12.340;2022-09-02T12:08:05;21.90;46.90
23301;DHT22;11819;51.394;12.340;2022-09-02T12:13:31;21.90;46.60
23301;DHT22;11819;51.394;12.340;2022-09-02T12:21:19;22.00;46.30
23301;DHT22;11819;51.394;12.340;2022-09-02T12:26:15;22.20;46.50
23301;DHT22;11819;51.394;12.340;2022-09-02T12:28:44;22.40;46.00
23301;DHT22;11819;51.394;12.340;2022-09-02T12:31:16;22.60;45.70
23301;DHT22;11819;51.394;12.340;2022-09-02T12:36:53;23.10;44.90
23301;DHT22;11819;51.394;12.340;2022-09-02T12:45:12;23.60;43.90
23301;DHT22;11819;51.394;12.340;2022-09-02T12:47:59;23.80;43.50
23301;DHT22;11819;51.394;12.340;2022-09-02T12:50:29;23.80;43.60
23301;DHT22;11819;51.394;12.340;2022-09-02T12:53:13;23.70;43.60
23301;DHT22;11819;51.394;12.340;2022-09-02T12:55:57;23.60;43.90
23301;DHT22;11819;51.394;12.340;2022-09-02T12:58:28;23.60;44.00
23301;DHT22;11819;51.394;12.340;2022-09-02T13:01:11;23.60;44.00
23301;DHT22;11819;51.394;12.340;2022-09-02T13:20:55;23.00;44.70
23301;DHT22;11819;51.394;12.340;2022-09-02T13:26:52;23.10;44.90
23301;DHT22;11819;51.394;12.340;2022-09-02T13:34:41;23.40;44.60
23301;DHT22;11819;51.394;12.340;2022-09-02T13:37:26;23.40;44.50
23301;DHT22;11819;51.394;12.340;2022-09-02T13:39:53;23.40;44.60
23301;DHT22;11819;51.394;12.340;2022-09-02T13:42:22;23.50;44.60
23301;DHT22;11819;51.394;12.340;2022-09-02T13:44:48;23.60;44.50
23301;DHT22;11819;51.394;12.340;2022-09-02T13:47:16;23.70;44.30
23301;DHT22;11819;51.394;12.340;2022-09-02T13:49:45;23.70;44.20
23301;DHT22;11819;51.394;12.340;2022-09-02T13:52:17;23.80;44.30
23301;DHT22;11819;51.394;12.340;2022-09-02T13:54:46;23.90;44.10
23301;DHT22;11819;51.394;12.340;2022-09-02T13:57:22;23.90;43.70
23301;DHT22;11819;51.394;12.340;2022-09-02T13:59:50;23.90;43.70
23301;DHT22;11819;51.394;12.340;2022-09-02T14:02:29;23.90;43.80
23301;DHT22;11819;51.394;12.340;2022-09-02T14:05:20;24.20;44.10
23301;DHT22;11819;51.394;12.340;2022-09-02T14:07:52;24.90;44.60
23301;DHT22;11819;51.394;12.340;2022-09-02T14:12:47;25.60;43.80
23301;DHT22;11819;51.394;12.340;2022-09-02T14:15:16;26.90;42.00
23301;DHT22;11819;51.394;12.340;2022-09-02T14:17:42;27.30;41.00
23301;DHT22;11819;51.394;12.340;2022-09-02T14:20:16;27.40;40.30
23301;DHT22;11819;51.394;12.340;2022-09-02T14:22:42;27.40;39.30
23301;DHT22;11819;51.394;12.340;2022-09-02T14:25:17;27.60;39.60
23301;DHT22;11819;51.394;12.340;2022-09-02T14:27:51;27.80;38.50
23301;DHT22;11819;51.394;12.340;2022-09-02T14:33:22;27.90;38.10
23301;DHT22;11819;51.394;12.340;2022-09-02T14:38:23;28.00;38.40
23301;DHT22;11819;51.394;12.340;2022-09-02T14:40:58;28.10;38.10
23301;DHT22;11819;51.394;12.340;2022-09-02T14:43:24;27.90;37.80
23301;DHT22;11819;51.394;12.340;2022-09-02T14:45:50;27.50;37.60
23301;DHT22;11819;51.394;12.340;2022-09-02T14:48:24;27.20;37.90
23301;DHT22;11819;51.394;12.340;2022-09-02T14:51:03;26.80;38.20
23301;DHT22;11819;51.394;12.340;2022-09-02T14:53:30;26.60;38.50
23301;DHT22;11819;51.394;12.340;2022-09-02T14:55:56;26.70;38.90
23301;DHT22;11819;51.394;12.340;2022-09-02T14:58:25;26.70;38.90
23301;DHT22;11819;51.394;12.340;2022-09-02T15:00:52;26.50;38.80
23301;DHT22;11819;51.394;12.340;2022-09-02T15:03:21;26.30;38.80
23301;DHT22;11819;51.394;12.340;2022-09-02T15:05:47;26.10;38.80
23301;DHT22;11819;51.394;12.340;2022-09-02T15:08:13;25.80;39.00
23301;DHT22;11819;51.394;12.340;2022-09-02T15:10:40;25.60;39.20
23301;DHT22;11819;51.394;12.340;2022-09-02T15:13:10;25.40;39.30
23301;DHT22;11819;51.394;12.340;2022-09-02T15:15:39;25.30;39.60
23301;DHT22;11819;51.394;12.340;2022-09-02T15:18:05;25.20;40.40
23301;DHT22;11819;51.394;12.340;2022-09-02T15:20:31;25.00;39.80
23301;DHT22;11819;51.394;12.340;2022-09-02T15:22:57;24.90;40.00
23301;DHT22;11819;51.394;12.340;2022-09-02T15:25:23;24.70;40.20
23301;DHT22;11819;51.394;12.340;2022-09-02T15:27:49;24.60;40.40
23301;DHT22;11819;51.394;12.340;2022-09-02T15:30:14;24.50;40.60
23301;DHT22;11819;51.394;12.340;2022-09-02T15:32:40;24.40;40.80
23301;DHT22;11819;51.394;12.340;2022-09-02T15:35:07;24.20;41.00
23301;DHT22;11819;51.394;12.340;2022-09-02T15:37:33;24.10;41.30
23301;DHT22;11819;51.394;12.340;2022-09-02T15:40:06;24.00;41.40
23301;DHT22;11819;51.394;12.340;2022-09-02T15:42:36;24.00;41.60
23301;DHT22;11819;51.394;12.340;2022-09-02T15:45:04;23.90;41.60
23301;DHT22;11819;51.394;12.340;2022-09-02T15:47:30;23.80;41.70
23301;DHT22;11819;51.394;12.340;2022-09-02T15:49:58;23.80;41.80
23301;DHT22;11819;51.394;12.340;2022-09-02T15:52:24;23.70;41.90
23301;DHT22;11819;51.394;12.340;2022-09-02T15:54:52;23.70;42.10
23301;DHT22;11819;51.394;12.340;2022-09-02T15:57:17;23.60;42.20
23301;DHT22;11819;51.394;12.340;2022-09-02T15:59:43;23.60;42.40
23301;DHT22;11819;51.394;12.340;2022-09-02T16:02:08;23.60;42.60
23301;DHT22;11819;51.394;12.340;2022-09-02T16:04:34;23.70;42.60
23301;DHT22;11819;51.394;12.340;2022-09-02T16:07:00;23.70;42.50
23301;DHT22;11819;51.394;12.340;2022-09-02T16:09:25;23.70;42.50
23301;DHT22;11819;51.394;12.340;2022-09-02T16:11:53;23.70;42.50
23301;DHT22;11819;51.394;12.340;2022-09-02T16:14:21;23.60;42.40
23301;DHT22;11819;51.394;12.340;2022-09-02T16:16:49;23.50;42.50
23301;DHT22;11819;51.394;12.340;2022-09-02T16:19:14;23.40;42.60
23301;DHT22;11819;51.394;12.340;2022-09-02T16:21:40;23.30;42.80
23301;DHT22;11819;51.394;12.340;2022-09-02T16:24:07;23.20;42.90
23301;DHT22;11819;51.394;12.340;2022-09-02T16:26:35;23.20;43.10
23301;DHT22;11819;51.394;12.340;2022-09-02T16:29:05;23.10;43.20
23301;DHT22;11819;51.394;12.340;2022-09-02T16:31:32;23.10;43.40
23301;DHT22;11819;51.394;12.340;2022-09-02T16:34:03;23.10;43.50
23301;DHT22;11819;51.394;12.340;2022-09-02T16:36:31;23.10;43.60
23301;DHT22;11819;51.394;12.340;2022-09-02T16:38:57;23.00;43.60
23301;DHT22;11819;51.394;12.340;2022-09-02T16:41:36;23.00;43.70
23301;DHT22;11819;51.394;12.340;2022-09-02T16:44:08;23.00;43.80
23301;DHT22;11819;51.394;12.340;2022-09-02T16:46:35;22.90;43.80
23301;DHT22;11819;51.394;12.340;2022-09-02T16:49:01;22.90;44.00
23301;DHT22;11819;51.394;12.340;2022-09-02T16:51:27;22.90;44.00
23301;DHT22;11819;51.394;12.340;2022-09-02T16:53:56;22.80;44.00
23301;DHT22;11819;51.394;12.340;2022-09-02T16:56:22;22.80;44.00
23301;DHT22;11819;51.394;12.340;2022-09-02T16:58:49;22.70;44.00
23301;DHT22;11819;51.394;12.340;2022-09-02T17:01:15;22.70;44.10
23301;DHT22;11819;51.394;12.340;2022-09-02T17:03:41;22.70;44.10
23301;DHT22;11819;51.394;12.340;2022-09-02T17:06:08;22.60;44.10
23301;DHT22;11819;51.394;12.340;2022-09-02T17:08:34;22.60;44.30
23301;DHT22;11819;51.394;12.340;2022-09-02T17:11:28;22.60;44.40
23301;DHT22;11819;51.394;12.340;2022-09-02T17:13:56;22.50;44.40
23301;DHT22;11819;51.394;12.340;2022-09-02T17:16:27;22.50;44.50
23301;DHT22;11819;51.394;12.340;2022-09-02T17:18:53;22.40;44.50
23301;DHT22;11819;51.394;12.340;2022-09-02T17:21:26;22.40;44.60
23301;DHT22;11819;51.394;12.340;2022-09-02T17:23:52;22.30;44.70
23301;DHT22;11819;51.394;12.340;2022-09-02T17:26:19;22.30;44.80